Time,TemperatureF,DewpointF,PressureIn,WindDirection,WindDirectionDegrees,WindSpeedMPH,WindSpeedGustMPH,Humidity,HourlyPrecipIn,Conditions,Clouds,dailyrainin,SoftwareType,DateUTC
2013-03-24 00:01:00,35.3,21.0,29.72,South,191,2.0,-999.0,57,-99.99,,,0.00,weatherlink.com 1.10,2013-03-24 04:01:00,
2013-03-24 00:16:00,35.2,21.0,29.71,WNW,300,2.0,-999.0,57,-99.99,,,0.00,weatherlink.com 1.10,2013-03-24 04:16:00,
2013-03-24 00:31:00,35.2,21.0,29.70,West,270,3.0,-999.0,57,-99.99,,,0.00,weatherlink.com 1.10,2013-03-24 04:31:00,
2013-03-24 00:46:00,35.2,22.0,29.70,NW,305,7.0,-999.0,58,-99.99,,,0.00,weatherlink.com 1.10,2013-03-24 04:46:00,
2013-03-24 01:01:00,35.2,22.0,29.70,WNW,293,2.0,-999.0,58,-99.99,,,0.00,weatherlink.com 1.10,2013-03-24 05:01:00,
2013-03-24 01:16:00,35.1,22.0,29.70,NNW,348,4.0,-999.0,59,-99.99,,,0.00,weatherlink.com 1.10,2013-03-24 05:16:00,
2013-03-24 01:46:00,34.8,22.0,29.71,NW,316,5.0,-999.0,60,-99.99,,,0.00,weatherlink.com 1.10,2013-03-24 05:46:00,
2013-03-24 02:01:00,34.5,22.0,29.72,West,268,3.0,-999.0,60,-99.99,,,0.00,weatherlink.com 1.10,2013-03-24 06:01:00,
2013-03-24 02:16:00,34.6,22.0,29.72,NW,324,4.0,-999.0,61,-99.99,,,0.00,weatherlink.com 1.10,2013-03-24 06:16:00,
2013-03-24 02:31:00,34.2,22.0,29.71,NW,321,0.0,-999.0,61,-99.99,,,0.00,weatherlink.com 1.10,2013-03-24 06:31:00,
2013-03-24 02:47:00,34.1,22.0,29.71,NW,308,2.0,-999.0,62,-99.99,,,0.00,weatherlink.com 1.10,2013-03-24 06:47:00,
2013-03-24 03:01:00,34.0,22.0,29.71,NW,312,4.0,-999.0,62,-99.99,,,0.00,weatherlink.com 1.10,2013-03-24 07:01:00,
2013-03-24 03:31:00,33.7,22.0,29.71,NNW,338,4.0,-999.0,63,-99.99,,,0.00,weatherlink.com 1.10,2013-03-24 07:31:00,
2013-03-24 03:47:00,33.7,23.0,29.70,West,281,7.0,-999.0,64,-99.99,,,0.00,weatherlink.com 1.10,2013-03-24 07:47:00,
2013-03-24 04:01:00,33.6,23.0,29.70,NW,315,1.0,-999.0,64,-99.99,,,0.00,weatherlink.com 1.10,2013-03-24 08:01:00,
2013-03-24 04:16:00,33.4,23.0,29.70,West,271,1.0,-999.0,65,-99.99,,,0.00,weatherlink.com 1.10,2013-03-24 08:16:00,
2013-03-24 04:31:00,33.1,23.0,29.70,NW,309,3.0,-999.0,66,-99.99,,,0.00,weatherlink.com 1.10,2013-03-24 08:31:00,
2013-03-24 04:46:00,32.9,23.0,29.70,NNW,331,0.0,-999.0,67,-99.99,,,0.00,weatherlink.com 1.10,2013-03-24 08:46:00,
2013-03-24 05:02:00,32.6,23.0,29.70,WSW,247,0.0,-999.0,67,-99.99,,,0.00,weatherlink.com 1.10,2013-03-24 09:02:00,
2013-03-24 05:16:00,32.5,23.0,29.71,NW,317,1.0,-999.0,68,-99.99,,,0.00,weatherlink.com 1.10,2013-03-24 09:16:00,
2013-03-24 05:31:00,32.4,23.0,29.71,WNW,290,0.0,-999.0,68,-99.99,,,0.00,weatherlink.com 1.10,2013-03-24 09:31:00,
2013-03-24 05:47:00,32.3,23.0,29.71,WNW,286,1.0,-999.0,69,-99.99,,,0.00,weatherlink.com 1.10,2013-03-24 09:47:00,
2013-03-24 06:01:00,32.1,23.0,29.72,WNW,288,0.0,-999.0,69,-99.99,,,0.00,weatherlink.com 1.10,2013-03-24 10:01:00,
2013-03-24 06:17:00,31.8,23.0,29.72,WNW,288,0.0,-999.0,70,-99.99,,,0.00,weatherlink.com 1.10,2013-03-24 10:17:00,
2013-03-24 06:31:00,31.5,23.0,29.73,NW,306,0.0,-999.0,71,-99.99,,,0.00,weatherlink.com 1.10,2013-03-24 10:31:00,
2013-03-24 06:46:00,31.3,23.0,29.75,NW,306,0.0,-999.0,71,-99.99,,,0.00,weatherlink.com 1.10,2013-03-24 10:46:00,
2013-03-24 07:01:00,31.1,23.0,29.75,NW,306,0.0,-999.0,72,-99.99,,,0.00,weatherlink.com 1.10,2013-03-24 11:01:00,
2013-03-24 07:17:00,31.6,24.0,29.75,NW,306,0.0,-999.0,72,-99.99,,,0.00,weatherlink.com 1.10,2013-03-24 11:17:00,
2013-03-24 07:31:00,32.8,24.0,29.75,NNW,330,2.0,-999.0,69,-99.99,,,0.00,weatherlink.com 1.10,2013-03-24 11:31:00,
2013-03-24 07:46:00,33.9,24.0,29.75,WNW,285,5.0,-999.0,67,-99.99,,,0.00,weatherlink.com 1.10,2013-03-24 11:46:00,
2013-03-24 08:01:00,34.7,24.0,29.75,NNW,339,3.0,-999.0,66,-99.99,,,0.00,weatherlink.com 1.10,2013-03-24 12:01:00,
2013-03-24 08:32:00,36.1,24.0,29.75,NW,304,3.0,-999.0,63,-99.99,,,0.00,weatherlink.com 1.10,2013-03-24 12:32:00,
2013-03-24 08:46:00,36.9,24.0,29.74,NW,311,3.0,-999.0,61,-99.99,,,0.00,weatherlink.com 1.10,2013-03-24 12:46:00,
2013-03-24 09:01:00,37.5,25.0,29.74,NNW,348,7.0,-999.0,61,-99.99,,,0.00,weatherlink.com 1.10,2013-03-24 13:01:00,
2013-03-24 09:31:00,38.3,25.0,29.74,North,351,7.0,-999.0,59,-99.99,,,0.00,weatherlink.com 1.10,2013-03-24 13:31:00,
2013-03-24 09:46:00,39.3,25.0,29.75,NE,34,6.0,-999.0,58,-99.99,,,0.00,weatherlink.com 1.10,2013-03-24 13:46:00,
2013-03-24 10:02:00,40.0,25.0,29.75,NNW,342,4.0,-999.0,56,-99.99,,,0.00,weatherlink.com 1.10,2013-03-24 14:02:00,
2013-03-24 10:16:00,40.7,25.0,29.75,NNW,348,4.0,-999.0,54,-99.99,,,0.00,weatherlink.com 1.10,2013-03-24 14:16:00,
2013-03-24 10:32:00,41.6,25.0,29.75,NNW,336,3.0,-999.0,53,-99.99,,,0.00,weatherlink.com 1.10,2013-03-24 14:32:00,
2013-03-24 10:47:00,41.9,25.0,29.75,NNW,338,0.0,-999.0,51,-99.99,,,0.00,weatherlink.com 1.10,2013-03-24 14:47:00,
2013-03-24 11:01:00,42.8,25.0,29.75,West,266,3.0,-999.0,50,-99.99,,,0.00,weatherlink.com 1.10,2013-03-24 15:01:00,
2013-03-24 11:17:00,43.2,25.0,29.75,North,360,7.0,-999.0,49,-99.99,,,0.00,weatherlink.com 1.10,2013-03-24 15:17:00,
2013-03-24 11:32:00,43.2,25.0,29.75,NNW,340,4.0,-999.0,49,-99.99,,,0.00,weatherlink.com 1.10,2013-03-24 15:32:00,
2013-03-24 12:02:00,44.7,25.0,29.75,WNW,287,1.0,-999.0,47,-99.99,,,0.00,weatherlink.com 1.10,2013-03-24 16:02:00,
2013-03-24 12:17:00,45.1,25.0,29.75,WNW,294,3.0,-999.0,46,-99.99,,,0.00,weatherlink.com 1.10,2013-03-24 16:17:00,
2013-03-24 12:32:00,45.1,25.0,29.75,WNW,292,3.0,-999.0,46,-99.99,,,0.00,weatherlink.com 1.10,2013-03-24 16:32:00,
2013-03-24 12:47:00,45.4,25.0,29.74,NNW,340,5.0,-999.0,45,-99.99,,,0.00,weatherlink.com 1.10,2013-03-24 16:47:00,
2013-03-24 13:02:00,44.8,25.0,29.75,NNW,348,0.0,-999.0,46,-99.99,,,0.00,weatherlink.com 1.10,2013-03-24 17:02:00,
2013-03-24 13:17:00,45.4,24.0,29.74,NW,304,3.0,-999.0,44,-99.99,,,0.00,weatherlink.com 1.10,2013-03-24 17:17:00,
2013-03-24 13:32:00,45.8,25.0,29.72,SW,236,3.0,-999.0,45,-99.99,,,0.00,weatherlink.com 1.10,2013-03-24 17:32:00,
2013-03-24 13:47:00,47.1,24.0,29.72,NNW,344,9.0,-999.0,41,-99.99,,,0.00,weatherlink.com 1.10,2013-03-24 17:47:00,
2013-03-24 14:02:00,46.5,25.0,29.72,NW,323,0.0,-999.0,43,-99.99,,,0.00,weatherlink.com 1.10,2013-03-24 18:02:00,
2013-03-24 14:17:00,47.1,25.0,29.72,NW,323,8.0,-999.0,42,-99.99,,,0.00,weatherlink.com 1.10,2013-03-24 18:17:00,
2013-03-24 14:32:00,47.3,25.0,29.72,North,5,1.0,-999.0,42,-99.99,,,0.00,weatherlink.com 1.10,2013-03-24 18:32:00,
2013-03-24 15:02:00,47.6,24.0,29.70,NNE,33,2.0,-999.0,40,-99.99,,,0.00,weatherlink.com 1.10,2013-03-24 19:02:00,
2013-03-24 15:32:00,48.1,25.0,29.69,NNE,24,1.0,-999.0,41,-99.99,,,0.00,weatherlink.com 1.10,2013-03-24 19:32:00,
2013-03-24 15:47:00,48.3,25.0,29.69,NW,326,4.0,-999.0,40,-99.99,,,0.00,weatherlink.com 1.10,2013-03-24 19:47:00,
2013-03-24 16:02:00,48.5,24.0,29.68,NW,318,5.0,-999.0,39,-99.99,,,0.00,weatherlink.com 1.10,2013-03-24 20:02:00,
2013-03-24 16:17:00,48.1,26.0,29.68,SW,227,4.0,-999.0,42,-99.99,,,0.00,weatherlink.com 1.10,2013-03-24 20:17:00,
2013-03-24 16:32:00,49.4,25.0,29.68,NE,53,0.0,-999.0,39,-99.99,,,0.00,weatherlink.com 1.10,2013-03-24 20:32:00,
2013-03-24 16:47:00,49.9,26.0,29.67,NW,315,0.0,-999.0,39,-99.99,,,0.00,weatherlink.com 1.10,2013-03-24 20:47:00,
2013-03-24 17:02:00,49.6,25.0,29.68,NNE,30,0.0,-999.0,38,-99.99,,,0.00,weatherlink.com 1.10,2013-03-24 21:02:00,
2013-03-24 17:17:00,49.5,25.0,29.68,North,5,4.0,-999.0,39,-99.99,,,0.00,weatherlink.com 1.10,2013-03-24 21:17:00,
2013-03-24 17:32:00,47.0,31.0,29.69,ESE,109,1.0,-999.0,54,-99.99,,,0.00,weatherlink.com 1.10,2013-03-24 21:32:00,
2013-03-24 17:47:00,44.9,30.0,29.69,ESE,114,0.0,-999.0,56,-99.99,,,0.00,weatherlink.com 1.10,2013-03-24 21:47:00,
2013-03-24 18:02:00,43.6,29.0,29.70,ESE,117,4.0,-999.0,57,-99.99,,,0.00,weatherlink.com 1.10,2013-03-24 22:02:00,
2013-03-24 18:17:00,42.4,30.0,29.70,ESE,116,1.0,-999.0,63,-99.99,,,0.00,weatherlink.com 1.10,2013-03-24 22:17:00,
2013-03-24 18:32:00,41.6,30.0,29.70,ESE,113,2.0,-999.0,64,-99.99,,,0.00,weatherlink.com 1.10,2013-03-24 22:32:00,
2013-03-24 18:47:00,41.3,30.0,29.70,ESE,111,0.0,-999.0,65,-99.99,,,0.00,weatherlink.com 1.10,2013-03-24 22:47:00,
2013-03-24 19:02:00,40.8,29.0,29.70,ESE,111,0.0,-999.0,64,-99.99,,,0.00,weatherlink.com 1.10,2013-03-24 23:02:00,
2013-03-24 19:17:00,40.4,29.0,29.70,ESE,111,0.0,-999.0,65,-99.99,,,0.00,weatherlink.com 1.10,2013-03-24 23:17:00,
2013-03-24 19:32:00,39.8,30.0,29.70,ESE,111,0.0,-999.0,67,-99.99,,,0.00,weatherlink.com 1.10,2013-03-24 23:32:00,
2013-03-24 19:47:00,39.1,30.0,29.70,ESE,111,0.0,-999.0,69,-99.99,,,0.00,weatherlink.com 1.10,2013-03-24 23:47:00,
2013-03-24 20:02:00,38.2,30.0,29.71,ESE,111,0.0,-999.0,73,-99.99,,,0.00,weatherlink.com 1.10,2013-03-25 00:02:00,
2013-03-24 20:17:00,37.9,31.0,29.71,East,90,1.0,-999.0,75,-99.99,,,0.00,weatherlink.com 1.10,2013-03-25 00:17:00,
2013-03-24 20:32:00,38.5,33.0,29.71,ESE,103,2.0,-999.0,79,-99.99,,,0.00,weatherlink.com 1.10,2013-03-25 00:32:00,
2013-03-24 20:47:00,38.4,33.0,29.71,ESE,107,0.0,-999.0,80,-99.99,,,0.00,weatherlink.com 1.10,2013-03-25 00:47:00,
2013-03-24 21:02:00,38.1,32.0,29.73,ESE,107,0.0,-999.0,79,-99.99,,,0.00,weatherlink.com 1.10,2013-03-25 01:02:00,
2013-03-24 21:17:00,37.8,32.0,29.73,ESE,107,0.0,-999.0,80,-99.99,,,0.00,weatherlink.com 1.10,2013-03-25 01:17:00,
2013-03-24 21:32:00,37.5,32.0,29.74,ESE,107,0.0,-999.0,80,-99.99,,,0.00,weatherlink.com 1.10,2013-03-25 01:32:00,
2013-03-24 21:47:00,37.4,32.0,29.74,ESE,107,0.0,-999.0,80,-99.99,,,0.00,weatherlink.com 1.10,2013-03-25 01:47:00,
2013-03-24 22:02:00,37.4,32.0,29.74,ESE,107,0.0,-999.0,80,-99.99,,,0.00,weatherlink.com 1.10,2013-03-25 02:02:00,
2013-03-24 22:17:00,37.4,32.0,29.74,ESE,107,0.0,-999.0,80,-99.99,,,0.00,weatherlink.com 1.10,2013-03-25 02:17:00,
2013-03-24 22:32:00,37.4,32.0,29.74,ESE,107,0.0,-999.0,80,-99.99,,,0.00,weatherlink.com 1.10,2013-03-25 02:32:00,
2013-03-24 22:47:00,37.3,32.0,29.73,ESE,107,0.0,-999.0,81,-99.99,,,0.00,weatherlink.com 1.10,2013-03-25 02:47:00,
2013-03-24 23:02:00,37.3,32.0,29.73,ESE,107,0.0,-999.0,81,-99.99,,,0.00,weatherlink.com 1.10,2013-03-25 03:02:00,
2013-03-24 23:17:00,37.3,32.0,29.72,ESE,107,0.0,-999.0,81,-99.99,,,0.00,weatherlink.com 1.10,2013-03-25 03:17:00,
2013-03-24 23:32:00,37.3,32.0,29.72,ESE,107,0.0,-999.0,80,-99.99,,,0.00,weatherlink.com 1.10,2013-03-25 03:32:00,
2013-03-24 23:47:00,37.2,32.0,29.72,ESE,107,0.0,-999.0,80,-99.99,,,0.00,weatherlink.com 1.10,2013-03-25 03:47:00,